createdAt,value
2023-04-18T00:00:12.384Z,27.10
2023-04-18T00:00:42.429Z,27.12
2023-04-18T00:01:12.465Z,27.09
2023-04-18T00:01:42.509Z,27.12
2023-04-18T00:02:12.619Z,27.09
2023-04-18T00:02:42.769Z,27.10
2023-04-18T00:03:12.994Z,27.09
2023-04-18T00:03:43.084Z,27.09
2023-04-18T00:04:13.487Z,27.10
2023-04-18T00:04:42.916Z,27.09
2023-04-18T00:05:12.943Z,27.10
2023-04-18T00:05:42.976Z,27.09
2023-04-18T00:06:13.022Z,27.10
2023-04-18T00:06:43.037Z,27.10
2023-04-18T00:07:13.070Z,27.09
2023-04-18T00:07:43.097Z,27.09
2023-04-18T00:08:13.170Z,27.09
2023-04-18T00:08:43.202Z,27.07
2023-04-18T00:09:13.273Z,27.09
2023-04-18T00:09:43.391Z,27.10
2023-04-18T00:10:13.317Z,27.12
2023-04-18T00:10:43.440Z,27.09
2023-04-18T00:11:13.436Z,27.07
2023-04-18T00:11:43.558Z,27.09
2023-04-18T00:12:13.557Z,27.12
2023-04-18T00:13:13.633Z,27.09
2023-04-18T00:13:43.630Z,27.10
2023-04-18T00:14:43.741Z,27.09
2023-04-18T00:15:13.726Z,27.10
2023-04-18T00:15:43.859Z,27.07
2023-04-18T00:16:13.861Z,27.09
2023-04-18T00:16:43.873Z,27.07
2023-04-18T00:17:14.042Z,27.10
2023-04-18T00:17:44.080Z,27.09
2023-04-18T00:18:14.096Z,27.07
2023-04-18T00:18:44.086Z,27.07
2023-04-18T00:19:14.113Z,27.06
2023-04-18T00:19:44.197Z,27.07
2023-04-18T00:20:14.246Z,27.07
2023-04-18T00:20:44.247Z,27.07
2023-04-18T00:21:14.274Z,27.07
2023-04-18T00:21:44.310Z,27.09
2023-04-18T00:22:14.342Z,27.09
2023-04-18T00:22:44.371Z,27.06
2023-04-18T00:23:14.414Z,27.09
2023-04-18T00:23:44.455Z,27.07
2023-04-18T00:24:14.643Z,27.07
2023-04-18T00:24:44.564Z,27.07
2023-04-18T00:25:14.592Z,27.07
2023-04-18T00:25:44.626Z,27.07
2023-04-18T00:26:14.656Z,27.07
2023-04-18T00:26:44.707Z,27.06
2023-04-18T00:27:14.719Z,27.09
2023-04-18T00:27:44.751Z,27.07
2023-04-18T00:28:14.915Z,27.09
2023-04-18T00:28:44.811Z,27.06
2023-04-18T00:29:14.855Z,27.05
2023-04-18T00:29:44.882Z,27.06
2023-04-18T00:30:14.911Z,27.06
2023-04-18T00:30:44.943Z,27.06
2023-04-18T00:31:15.032Z,27.05
2023-04-18T00:31:45.072Z,27.06
2023-04-18T00:32:15.112Z,27.05
2023-04-18T00:32:45.188Z,27.06
2023-04-18T00:33:15.242Z,27.05
2023-04-18T00:33:45.266Z,27.05
2023-04-18T00:34:15.575Z,27.07
2023-04-18T00:34:45.320Z,27.07
2023-04-18T00:35:15.333Z,27.05
2023-04-18T00:35:45.370Z,27.03
2023-04-18T00:36:15.400Z,27.05
2023-04-18T00:36:45.433Z,27.05
2023-04-18T00:37:15.478Z,27.06
2023-04-18T00:37:45.507Z,27.03
2023-04-18T00:38:15.556Z,27.05
2023-04-18T00:38:45.578Z,27.05
2023-04-18T00:39:15.617Z,27.03
2023-04-18T00:39:45.649Z,27.06
2023-04-18T00:40:15.675Z,27.05
2023-04-18T00:40:45.705Z,27.05
2023-04-18T00:41:15.740Z,27.05
2023-04-18T00:41:45.774Z,27.05
2023-04-18T00:42:15.813Z,27.02
2023-04-18T00:42:45.856Z,27.05
2023-04-18T00:43:15.886Z,27.03
2023-04-18T00:43:45.928Z,27.02
2023-04-18T00:44:16.261Z,27.02
2023-04-18T00:44:45.988Z,27.01
2023-04-18T00:45:16.044Z,27.03
2023-04-18T00:45:46.088Z,27.03
2023-04-18T00:46:16.125Z,27.03
2023-04-18T00:46:46.152Z,27.03
2023-04-18T00:47:16.188Z,27.03
2023-04-18T00:47:46.317Z,27.05
2023-04-18T00:48:16.343Z,27.03
2023-04-18T00:48:46.370Z,27.03
2023-04-18T00:49:16.403Z,27.03
2023-04-18T00:49:46.440Z,27.01
2023-04-18T00:50:16.515Z,26.99
2023-04-18T00:50:46.531Z,27.02
2023-04-18T00:51:16.559Z,27.03
2023-04-18T00:51:46.592Z,27.03
2023-04-18T00:52:16.630Z,27.02
2023-04-18T00:52:46.674Z,27.01
2023-04-18T00:53:16.714Z,27.02
2023-04-18T00:53:46.737Z,27.03
2023-04-18T00:54:16.776Z,27.01
2023-04-18T00:54:46.813Z,27.01
2023-04-18T00:55:16.852Z,26.99
2023-04-18T00:55:46.876Z,27.01
2023-04-18T00:56:16.904Z,27.02
2023-04-18T00:56:46.935Z,26.99
2023-04-18T00:57:16.965Z,26.99
2023-04-18T00:57:47.005Z,26.99
2023-04-18T00:58:17.037Z,26.99
2023-04-18T00:58:47.079Z,27.02
2023-04-18T00:59:17.108Z,27.01
2023-04-18T00:59:47.133Z,26.99
2023-04-18T01:00:17.170Z,27.01
2023-04-18T01:00:47.203Z,26.99
2023-04-18T01:01:17.257Z,26.99
2023-04-18T01:01:47.349Z,26.99
2023-04-18T01:02:17.407Z,26.99
2023-04-18T01:02:47.484Z,26.96
2023-04-18T01:03:17.675Z,26.96
2023-04-18T01:03:47.689Z,26.99
2023-04-18T01:04:17.827Z,26.98
2023-04-18T01:04:47.582Z,26.98
2023-04-18T01:05:17.604Z,26.99
2023-04-18T01:05:47.659Z,26.96
2023-04-18T01:06:17.665Z,26.96
2023-04-18T01:06:47.698Z,26.96
2023-04-18T01:07:17.729Z,26.98
2023-04-18T01:07:47.754Z,26.95
2023-04-18T01:08:17.790Z,26.96
2023-04-18T01:08:47.827Z,26.95
2023-04-18T01:09:17.857Z,26.94
2023-04-18T01:09:47.885Z,26.98
2023-04-18T01:10:17.892Z,26.96
2023-04-18T01:10:48.008Z,26.96
2023-04-18T01:11:18.134Z,26.96
2023-04-18T01:11:48.129Z,26.98
2023-04-18T01:12:18.250Z,26.96
2023-04-18T01:12:48.369Z,26.96
2023-04-18T01:13:18.367Z,26.95
2023-04-18T01:14:18.444Z,26.98
2023-04-18T01:14:48.434Z,26.96
2023-04-18T01:15:18.570Z,26.96
2023-04-18T01:15:48.687Z,26.96
2023-04-18T01:16:18.739Z,26.95
2023-04-18T01:16:48.747Z,26.96
2023-04-18T01:17:18.886Z,26.95
2023-04-18T01:17:48.928Z,26.95
2023-04-18T01:18:18.918Z,26.94
2023-04-18T01:18:48.912Z,26.95
2023-04-18T01:19:48.999Z,26.98
2023-04-18T01:20:19.005Z,26.94
2023-04-18T01:20:49.039Z,26.94
2023-04-18T01:21:19.099Z,26.95
2023-04-18T01:21:49.109Z,26.95
2023-04-18T01:22:19.135Z,26.95
2023-04-18T01:22:49.170Z,26.98
2023-04-18T01:23:19.210Z,26.96
2023-04-18T01:23:49.243Z,26.95
2023-04-18T01:24:19.276Z,26.95
2023-04-18T01:24:49.314Z,26.95
2023-04-18T01:25:19.345Z,26.95
2023-04-18T01:25:49.400Z,26.94
2023-04-18T01:26:19.426Z,26.94
2023-04-18T01:26:49.460Z,26.94
2023-04-18T01:27:19.500Z,26.94
2023-04-18T01:27:49.530Z,26.95
2023-04-18T01:28:19.565Z,26.94
2023-04-18T01:28:49.616Z,26.94
2023-04-18T01:29:19.628Z,26.94
2023-04-18T01:29:49.664Z,26.95
2023-04-18T01:30:19.697Z,26.92
2023-04-18T01:30:49.734Z,26.92
2023-04-18T01:31:19.780Z,26.95
2023-04-18T01:31:49.948Z,26.92
2023-04-18T01:32:19.873Z,26.95
2023-04-18T01:32:49.931Z,26.92
2023-04-18T01:33:19.952Z,26.92
2023-04-18T01:33:49.983Z,26.92
2023-04-18T01:34:20.035Z,26.92
2023-04-18T01:34:50.048Z,26.92
2023-04-18T01:35:20.106Z,26.91
2023-04-18T01:35:50.123Z,26.94
2023-04-18T01:36:20.159Z,26.91
2023-04-18T01:36:50.343Z,26.92
2023-04-18T01:37:20.221Z,26.92
2023-04-18T01:38:20.267Z,26.94
2023-04-18T01:38:50.302Z,26.92
2023-04-18T01:39:20.339Z,26.91
2023-04-18T01:39:50.376Z,26.91
2023-04-18T01:40:20.407Z,26.89
2023-04-18T01:40:50.434Z,26.92
2023-04-18T01:41:20.484Z,26.91
2023-04-18T01:41:50.501Z,26.91
2023-04-18T01:42:20.532Z,26.94
2023-04-18T01:42:50.573Z,26.89
2023-04-18T01:43:20.610Z,26.89
2023-04-18T01:43:50.638Z,26.92
2023-04-18T01:44:20.676Z,26.92
2023-04-18T01:44:50.701Z,26.91
2023-04-18T01:45:20.745Z,26.92
2023-04-18T01:45:50.769Z,26.89
2023-04-18T01:46:20.855Z,26.91
2023-04-18T01:46:50.899Z,26.91
2023-04-18T01:47:20.965Z,26.91
2023-04-18T01:47:51.095Z,26.92
2023-04-18T01:48:21.064Z,26.92
2023-04-18T01:48:51.112Z,26.91
2023-04-18T01:49:21.138Z,26.89
2023-04-18T01:49:51.165Z,26.91
2023-04-18T01:50:21.198Z,26.89
2023-04-18T01:50:51.226Z,26.89
2023-04-18T01:51:21.259Z,26.88
2023-04-18T01:51:51.310Z,26.89
2023-04-18T01:52:21.363Z,26.92
2023-04-18T01:52:51.425Z,26.91
2023-04-18T01:53:21.446Z,26.89
2023-04-18T01:53:51.488Z,26.89
2023-04-18T01:54:21.514Z,26.89
2023-04-18T01:54:51.544Z,26.89
2023-04-18T01:55:21.599Z,26.88
2023-04-18T01:55:51.617Z,26.88
2023-04-18T01:56:21.671Z,26.89
2023-04-18T01:56:51.694Z,26.88
2023-04-18T01:57:21.728Z,26.88
2023-04-18T01:57:51.763Z,26.88
2023-04-18T01:58:21.822Z,26.87
2023-04-18T01:58:51.852Z,26.88
2023-04-18T01:59:21.879Z,26.87
2023-04-18T01:59:51.913Z,26.88
2023-04-18T02:00:21.942Z,26.87
2023-04-18T02:00:52.001Z,26.84
2023-04-18T02:01:22.061Z,26.84
2023-04-18T02:01:52.175Z,26.87
2023-04-18T02:02:22.225Z,26.87
2023-04-18T02:02:52.343Z,26.87
2023-04-18T02:03:22.585Z,26.84
2023-04-18T02:03:52.601Z,26.87
2023-04-18T02:04:22.460Z,26.85
2023-04-18T02:04:52.477Z,26.87
2023-04-18T02:05:22.512Z,26.84
2023-04-18T02:05:52.546Z,26.87
2023-04-18T02:06:22.575Z,26.84
2023-04-18T02:06:52.613Z,26.87
2023-04-18T02:07:22.651Z,26.84
2023-04-18T02:07:52.756Z,26.85
2023-04-18T02:08:22.774Z,26.87
2023-04-18T02:08:52.817Z,26.87
2023-04-18T02:09:22.846Z,26.82
2023-04-18T02:09:52.876Z,26.87
2023-04-18T02:10:22.887Z,26.84
2023-04-18T02:11:22.951Z,26.84
2023-04-18T02:11:52.956Z,26.84
2023-04-18T02:12:23.070Z,26.84
2023-04-18T02:12:53.066Z,26.84
2023-04-18T02:13:53.147Z,26.85
2023-04-18T02:14:23.139Z,26.87
2023-04-18T02:15:23.233Z,26.82
2023-04-18T02:15:53.227Z,26.85
2023-04-18T02:16:53.343Z,26.82
2023-04-18T02:17:23.595Z,26.82
2023-04-18T02:17:53.386Z,26.82
2023-04-18T02:18:23.399Z,26.84
2023-04-18T02:18:53.398Z,26.82
2023-04-18T02:19:53.486Z,26.81
2023-04-18T02:20:23.513Z,26.82
2023-04-18T02:20:53.587Z,26.84
2023-04-18T02:21:23.644Z,26.82
2023-04-18T02:21:53.676Z,26.81
2023-04-18T02:22:23.704Z,26.81
2023-04-18T02:22:53.738Z,26.82
2023-04-18T02:23:23.801Z,26.84
2023-04-18T02:23:53.808Z,26.84
2023-04-18T02:24:23.842Z,26.82
2023-04-18T02:24:53.881Z,26.84
2023-04-18T02:25:23.917Z,26.82
2023-04-18T02:25:53.953Z,26.79
2023-04-18T02:26:23.993Z,26.82
2023-04-18T02:26:54.015Z,26.82
2023-04-18T02:27:24.049Z,26.84
2023-04-18T02:27:54.077Z,26.82
2023-04-18T02:28:24.117Z,26.82
2023-04-18T02:28:54.149Z,26.82
2023-04-18T02:29:24.186Z,26.82
2023-04-18T02:29:54.220Z,26.84
2023-04-18T02:30:24.254Z,26.82
2023-04-18T02:30:54.292Z,26.82
2023-04-18T02:31:24.373Z,26.82
2023-04-18T02:31:54.429Z,26.81
2023-04-18T02:32:24.493Z,26.84
2023-04-18T02:32:54.616Z,26.81
2023-04-18T02:33:24.687Z,26.79
2023-04-18T02:33:54.710Z,26.81
2023-04-18T02:34:24.742Z,26.78
2023-04-18T02:34:54.780Z,26.81
2023-04-18T02:35:24.812Z,26.82
2023-04-18T02:35:54.837Z,26.82
2023-04-18T02:36:24.873Z,26.79
2023-04-18T02:36:54.903Z,26.81
2023-04-18T02:37:24.946Z,26.81
2023-04-18T02:37:54.979Z,26.79
2023-04-18T02:38:25.020Z,26.78
2023-04-18T02:38:55.085Z,26.81
2023-04-18T02:39:25.096Z,26.79
2023-04-18T02:39:55.128Z,26.81
2023-04-18T02:40:25.164Z,26.81
2023-04-18T02:40:55.192Z,26.79
2023-04-18T02:41:25.236Z,26.79
2023-04-18T02:41:55.264Z,26.79
2023-04-18T02:42:25.300Z,26.79
2023-04-18T02:42:55.328Z,26.77
2023-04-18T02:43:25.375Z,26.79
2023-04-18T02:43:55.409Z,26.77
2023-04-18T02:44:25.435Z,26.78
2023-04-18T02:44:55.473Z,26.78
2023-04-18T02:45:25.504Z,26.81
2023-04-18T02:45:55.551Z,26.78
2023-04-18T02:46:25.645Z,26.78
2023-04-18T02:46:55.581Z,26.79
2023-04-18T02:47:25.648Z,26.78
2023-04-18T02:47:56.738Z,26.78
2023-04-18T02:48:25.727Z,26.78
2023-04-18T02:48:55.762Z,26.78
2023-04-18T02:49:25.815Z,26.78
2023-04-18T02:49:55.822Z,26.78
2023-04-18T02:50:25.867Z,26.75
2023-04-18T02:50:55.891Z,26.77
2023-04-18T02:51:25.925Z,26.78
2023-04-18T02:51:55.950Z,26.74
2023-04-18T02:52:25.988Z,26.75
2023-04-18T02:52:56.089Z,26.75
2023-04-18T02:53:26.016Z,26.77
2023-04-18T02:53:56.052Z,26.74
2023-04-18T02:54:26.121Z,26.77
2023-04-18T02:54:56.131Z,26.75
2023-04-18T02:55:26.163Z,26.75
2023-04-18T02:55:56.191Z,26.77
2023-04-18T02:56:26.226Z,26.75
2023-04-18T02:56:56.258Z,26.74
2023-04-18T02:57:26.300Z,26.75
2023-04-18T02:57:56.333Z,26.74
2023-04-18T02:58:26.380Z,26.77
2023-04-18T02:58:56.397Z,26.75
2023-04-18T02:59:26.439Z,26.75
2023-04-18T02:59:56.462Z,26.77
2023-04-18T03:00:26.497Z,26.74
2023-04-18T03:00:56.556Z,26.75
2023-04-18T03:01:26.598Z,26.74
2023-04-18T03:01:56.652Z,26.74
2023-04-18T03:02:26.800Z,26.75
2023-04-18T03:02:56.958Z,26.72
2023-04-18T03:03:26.885Z,26.74
2023-04-18T03:03:56.929Z,26.78
2023-04-18T03:04:26.977Z,26.75
2023-04-18T03:04:57.024Z,26.74
2023-04-18T03:05:27.070Z,26.75
2023-04-18T03:05:57.110Z,26.75
2023-04-18T03:06:27.127Z,26.74
2023-04-18T03:06:57.155Z,26.71
2023-04-18T03:07:27.191Z,26.75
2023-04-18T03:07:57.217Z,26.74
2023-04-18T03:08:27.264Z,26.75
2023-04-18T03:08:57.291Z,26.74
2023-04-18T03:09:27.319Z,26.74
2023-04-18T03:09:57.378Z,26.72
2023-04-18T03:10:27.361Z,26.74
2023-04-18T03:10:57.484Z,26.75
2023-04-18T03:11:27.488Z,26.75
2023-04-18T03:12:27.546Z,26.78
2023-04-18T03:12:57.547Z,26.77
2023-04-18T03:13:57.546Z,26.78
2023-04-18T03:14:27.666Z,26.77
2023-04-18T03:14:57.782Z,26.77
2023-04-18T03:15:27.902Z,26.78
2023-04-18T03:15:58.066Z,26.77
2023-04-18T03:16:28.106Z,26.79
2023-04-18T03:16:58.116Z,26.78
2023-04-18T03:17:28.239Z,26.81
2023-04-18T03:17:58.286Z,26.82
2023-04-18T03:18:28.289Z,26.82
2023-04-18T03:18:58.290Z,26.82
2023-04-18T03:19:28.406Z,26.79
2023-04-18T03:19:58.422Z,26.82
2023-04-18T03:20:28.444Z,26.85
2023-04-18T03:20:58.578Z,26.84
2023-04-18T03:21:28.486Z,26.84
2023-04-18T03:21:58.528Z,26.85
2023-04-18T03:22:28.556Z,26.84
2023-04-18T03:22:58.596Z,26.85
2023-04-18T03:23:28.618Z,26.87
2023-04-18T03:23:58.660Z,26.87
2023-04-18T03:24:28.682Z,26.88
2023-04-18T03:24:58.717Z,26.89
2023-04-18T03:25:28.777Z,26.89
2023-04-18T03:25:58.776Z,26.88
2023-04-18T03:26:28.807Z,26.89
2023-04-18T03:26:58.840Z,26.88
2023-04-18T03:27:28.870Z,26.91
2023-04-18T03:27:58.919Z,26.91
2023-04-18T03:28:28.950Z,26.89
2023-04-18T03:28:58.982Z,26.87
2023-04-18T03:29:29.009Z,26.89
2023-04-18T03:29:59.049Z,26.89
2023-04-18T03:30:29.086Z,26.91
2023-04-18T03:30:59.148Z,26.89
2023-04-18T03:31:29.251Z,26.91
2023-04-18T03:31:59.275Z,26.89
2023-04-18T03:32:29.406Z,26.88
2023-04-18T03:32:59.378Z,26.91
2023-04-18T03:33:29.413Z,26.91
2023-04-18T03:33:59.454Z,26.91
2023-04-18T03:34:29.481Z,26.89
2023-04-18T03:34:59.516Z,26.91
2023-04-18T03:35:29.554Z,26.91
2023-04-18T03:35:59.588Z,26.92
2023-04-18T03:36:29.617Z,26.91
2023-04-18T03:36:59.647Z,26.91
2023-04-18T03:37:29.679Z,26.92
2023-04-18T03:37:59.731Z,26.91
2023-04-18T03:38:29.755Z,26.89
2023-04-18T03:38:59.785Z,26.88
2023-04-18T03:39:29.806Z,26.88
2023-04-18T03:39:59.836Z,26.92
2023-04-18T03:40:29.885Z,26.89
2023-04-18T03:40:59.937Z,26.91
2023-04-18T03:41:29.945Z,26.91
2023-04-18T03:41:59.972Z,26.91
2023-04-18T03:42:30.006Z,26.89
2023-04-18T03:43:00.036Z,26.89
2023-04-18T03:43:30.069Z,26.89
2023-04-18T03:44:00.146Z,26.91
2023-04-18T03:44:30.157Z,26.89
2023-04-18T03:45:00.191Z,26.92
2023-04-18T03:45:30.220Z,26.91
2023-04-18T03:46:00.295Z,26.91
2023-04-18T03:46:30.358Z,26.87
2023-04-18T03:47:00.392Z,26.89
2023-04-18T03:47:30.465Z,26.89
2023-04-18T03:48:00.548Z,26.88
2023-04-18T03:48:30.576Z,26.91
2023-04-18T03:49:00.601Z,26.91
2023-04-18T03:49:30.629Z,26.89
2023-04-18T03:50:00.702Z,26.89
2023-04-18T03:50:30.725Z,26.92
2023-04-18T03:51:00.771Z,26.88
2023-04-18T03:51:30.814Z,26.88
2023-04-18T03:52:00.881Z,26.89
2023-04-18T03:52:30.933Z,26.92
2023-04-18T03:53:00.970Z,26.88
2023-04-18T03:53:31.001Z,26.91
2023-04-18T03:54:01.037Z,26.89
2023-04-18T03:54:31.069Z,26.91
2023-04-18T03:55:01.095Z,26.89
2023-04-18T03:55:31.130Z,26.92
2023-04-18T03:56:01.161Z,26.91
2023-04-18T03:56:31.220Z,26.94
2023-04-18T03:57:01.225Z,26.89
2023-04-18T03:57:31.257Z,26.88
2023-04-18T03:58:01.298Z,26.91
2023-04-18T03:58:31.329Z,26.89
2023-04-18T03:59:01.363Z,26.89
2023-04-18T03:59:31.416Z,26.88
2023-04-18T04:00:01.426Z,26.88
2023-04-18T04:00:31.464Z,26.88
2023-04-18T04:01:01.506Z,26.89
2023-04-18T04:01:31.546Z,26.88
2023-04-18T04:02:01.857Z,26.89
2023-04-18T04:02:31.679Z,26.88
2023-04-18T04:03:01.923Z,26.88
2023-04-18T04:03:31.835Z,26.89
2023-04-18T04:04:01.895Z,26.87
2023-04-18T04:04:31.784Z,26.87
2023-04-18T04:05:01.928Z,26.88
2023-04-18T04:05:31.853Z,26.89
2023-04-18T04:06:01.942Z,26.87
2023-04-18T04:06:31.991Z,26.88
2023-04-18T04:07:02.089Z,26.89
2023-04-18T04:07:32.035Z,26.87
2023-04-18T04:08:02.137Z,26.87
2023-04-18T04:08:32.149Z,26.87
2023-04-18T04:09:02.180Z,26.87
2023-04-18T04:09:32.232Z,26.75
2023-04-18T04:10:02.232Z,26.74
2023-04-18T04:10:32.229Z,26.79
2023-04-18T04:11:02.349Z,26.81
2023-04-18T04:11:32.382Z,26.84
2023-04-18T04:12:02.386Z,26.82
2023-04-18T04:12:32.490Z,26.82
2023-04-18T04:13:02.853Z,26.81
2023-04-18T04:13:32.604Z,26.81
2023-04-18T04:14:32.804Z,26.78
2023-04-18T04:15:02.798Z,26.82
2023-04-18T04:15:32.809Z,26.81
2023-04-18T04:16:02.970Z,26.84
2023-04-18T04:16:32.996Z,26.82
2023-04-18T04:17:03.014Z,26.81
2023-04-18T04:17:33.023Z,26.79
2023-04-18T04:18:03.097Z,26.79
2023-04-18T04:18:33.114Z,26.79
2023-04-18T04:19:03.112Z,26.78
2023-04-18T04:19:33.229Z,26.75
2023-04-18T04:20:03.246Z,26.75
2023-04-18T04:20:33.277Z,26.72
2023-04-18T04:21:03.315Z,26.72
2023-04-18T04:21:33.348Z,26.74
2023-04-18T04:22:03.384Z,26.71
2023-04-18T04:22:33.422Z,26.68
2023-04-18T04:23:03.463Z,26.70
2023-04-18T04:23:33.495Z,26.71
2023-04-18T04:24:03.537Z,26.68
2023-04-18T04:24:33.563Z,26.71
2023-04-18T04:25:03.593Z,26.70
2023-04-18T04:25:33.617Z,26.68
2023-04-18T04:26:03.651Z,26.68
2023-04-18T04:26:33.675Z,26.70
2023-04-18T04:27:03.712Z,26.70
2023-04-18T04:27:33.789Z,26.72
2023-04-18T04:28:03.815Z,26.71
2023-04-18T04:28:33.839Z,26.72
2023-04-18T04:29:03.877Z,26.74
2023-04-18T04:29:33.906Z,26.75
2023-04-18T04:30:03.941Z,26.78
2023-04-18T04:30:33.967Z,26.79
2023-04-18T04:31:04.003Z,26.82
2023-04-18T04:31:34.075Z,26.84
2023-04-18T04:32:04.173Z,26.87
2023-04-18T04:32:34.140Z,26.87
2023-04-18T04:33:04.183Z,26.88
2023-04-18T04:33:34.216Z,26.88
2023-04-18T04:34:04.244Z,26.91
2023-04-18T04:34:34.275Z,26.89
2023-04-18T04:35:04.301Z,26.89
2023-04-18T04:35:34.336Z,26.89
2023-04-18T04:36:04.404Z,26.94
2023-04-18T04:36:34.403Z,26.95
2023-04-18T04:37:04.441Z,26.95
2023-04-18T04:37:34.508Z,26.96
2023-04-18T04:38:04.540Z,26.99
2023-04-18T04:38:34.559Z,27.01
2023-04-18T04:39:04.595Z,27.03
2023-04-18T04:39:34.628Z,27.02
2023-04-18T04:40:04.663Z,27.06
2023-04-18T04:40:34.697Z,27.06
2023-04-18T04:41:04.728Z,27.06
2023-04-18T04:41:34.754Z,27.09
2023-04-18T04:42:04.797Z,27.10
2023-04-18T04:42:34.826Z,27.07
2023-04-18T04:43:04.883Z,27.09
2023-04-18T04:43:34.891Z,27.07
2023-04-18T04:44:04.965Z,27.09
2023-04-18T04:44:35.091Z,27.09
2023-04-18T04:45:05.035Z,27.12
2023-04-18T04:45:35.051Z,27.13
2023-04-18T04:46:05.146Z,27.13
2023-04-18T04:46:35.149Z,27.10
2023-04-18T04:47:05.196Z,27.13
2023-04-18T04:47:35.285Z,27.12
2023-04-18T04:48:05.370Z,27.15
2023-04-18T04:48:35.327Z,27.16
2023-04-18T04:49:05.363Z,27.15
2023-04-18T04:49:35.394Z,27.17
2023-04-18T04:50:05.426Z,27.20
2023-04-18T04:50:35.461Z,27.19
2023-04-18T04:51:05.497Z,27.17
2023-04-18T04:51:35.542Z,27.20
2023-04-18T04:52:05.572Z,27.20
2023-04-18T04:52:35.604Z,27.22
2023-04-18T04:53:05.637Z,27.22
2023-04-18T04:53:35.667Z,27.23
2023-04-18T04:54:05.704Z,27.17
2023-04-18T04:54:35.748Z,27.13
2023-04-18T04:55:05.764Z,27.13
2023-04-18T04:55:35.808Z,27.09
2023-04-18T04:56:05.828Z,27.10
2023-04-18T04:56:35.858Z,27.09
2023-04-18T04:57:05.886Z,27.10
2023-04-18T04:57:35.931Z,27.07
2023-04-18T04:58:05.963Z,27.09
2023-04-18T04:58:36.025Z,27.07
2023-04-18T04:59:06.026Z,27.02
2023-04-18T04:59:36.068Z,27.02
2023-04-18T05:00:06.088Z,27.02
2023-04-18T05:00:36.132Z,27.02
2023-04-18T05:01:06.247Z,27.02
2023-04-18T05:01:36.326Z,27.01
2023-04-18T05:02:06.369Z,27.01
2023-04-18T05:02:36.435Z,27.01
2023-04-18T05:03:06.440Z,26.99
2023-04-18T05:03:36.532Z,26.98
2023-04-18T05:04:06.570Z,26.99
2023-04-18T05:04:36.723Z,26.98
2023-04-18T05:05:06.633Z,26.96
2023-04-18T05:05:36.659Z,26.96
2023-04-18T05:06:06.691Z,26.94
2023-04-18T05:06:37.913Z,26.92
2023-04-18T05:07:06.729Z,26.92
2023-04-18T05:07:36.766Z,26.95
2023-04-18T05:08:06.798Z,26.94
2023-04-18T05:08:36.859Z,26.99
2023-04-18T05:09:06.877Z,26.96
2023-04-18T05:09:36.916Z,26.98
2023-04-18T05:10:06.942Z,26.98
2023-04-18T05:10:37.133Z,27.01
2023-04-18T05:11:07.099Z,27.01
2023-04-18T05:11:37.096Z,27.06
2023-04-18T05:12:07.213Z,27.05
2023-04-18T05:12:37.216Z,27.06
2023-04-18T05:13:37.310Z,27.12
2023-04-18T05:14:07.339Z,27.12
2023-04-18T05:14:37.326Z,27.12
2023-04-18T05:15:37.411Z,27.12
2023-04-18T05:16:07.409Z,27.12
2023-04-18T05:16:37.589Z,27.15
2023-04-18T05:17:07.573Z,27.15
2023-04-18T05:17:37.655Z,27.15
2023-04-18T05:18:07.694Z,27.16
2023-04-18T05:18:37.684Z,27.16
2023-04-18T05:19:07.803Z,27.15
2023-04-18T05:19:37.922Z,27.17
2023-04-18T05:20:07.922Z,27.16
2023-04-18T05:20:37.957Z,27.20
2023-04-18T05:21:07.983Z,27.19
2023-04-18T05:21:38.017Z,27.20
2023-04-18T05:22:08.052Z,27.20
2023-04-18T05:22:38.084Z,27.20
2023-04-18T05:23:08.116Z,27.20
2023-04-18T05:23:38.142Z,27.22
2023-04-18T05:24:08.197Z,27.22
2023-04-18T05:24:38.202Z,27.24
2023-04-18T05:25:08.248Z,27.26
2023-04-18T05:25:38.267Z,27.27
2023-04-18T05:26:08.292Z,27.29
2023-04-18T05:26:38.324Z,27.24
2023-04-18T05:27:08.374Z,27.27
2023-04-18T05:27:38.392Z,27.24
2023-04-18T05:28:08.478Z,27.29
2023-04-18T05:28:38.540Z,27.30
2023-04-18T05:29:08.580Z,27.30
2023-04-18T05:29:38.619Z,27.30
2023-04-18T05:30:08.625Z,27.33
2023-04-18T05:30:38.690Z,27.32
2023-04-18T05:31:08.728Z,27.32
2023-04-18T05:31:38.792Z,27.34
2023-04-18T05:32:08.813Z,27.33
2023-04-18T05:32:38.968Z,27.34
2023-04-18T05:33:08.967Z,27.34
2023-04-18T05:33:38.885Z,27.32
2023-04-18T05:34:08.909Z,27.34
2023-04-18T05:34:39.042Z,27.33
2023-04-18T05:35:09.060Z,27.34
2023-04-18T05:35:39.084Z,27.34
2023-04-18T05:36:09.109Z,27.36
2023-04-18T05:36:39.142Z,27.36
2023-04-18T05:37:09.177Z,27.36
2023-04-18T05:37:39.203Z,27.37
2023-04-18T05:38:09.235Z,27.37
2023-04-18T05:38:39.269Z,27.36
2023-04-18T05:39:09.293Z,27.34
2023-04-18T05:39:39.335Z,27.33
2023-04-18T05:40:09.375Z,27.37
2023-04-18T05:40:39.384Z,27.39
2023-04-18T05:41:09.416Z,27.36
2023-04-18T05:41:39.458Z,27.37
2023-04-18T05:42:09.497Z,27.37
2023-04-18T05:42:39.525Z,27.34
2023-04-18T05:43:09.562Z,27.34
2023-04-18T05:43:39.596Z,27.36
2023-04-18T05:44:09.629Z,27.34
2023-04-18T05:44:39.669Z,27.33
2023-04-18T05:45:09.708Z,27.30
2023-04-18T05:45:39.721Z,27.30
2023-04-18T05:46:09.781Z,27.29
2023-04-18T05:46:39.919Z,27.32
2023-04-18T05:47:09.911Z,27.33
2023-04-18T05:47:40.081Z,27.32
2023-04-18T05:48:10.049Z,27.32
2023-04-18T05:48:40.066Z,27.32
2023-04-18T05:49:10.093Z,27.32
2023-04-18T05:49:40.127Z,27.32
2023-04-18T05:50:10.171Z,27.33
2023-04-18T05:50:40.189Z,27.34
2023-04-18T05:51:11.699Z,27.33
2023-04-18T05:51:40.264Z,27.34
2023-04-18T05:52:10.295Z,27.32
2023-04-18T05:52:40.343Z,27.34
2023-04-18T05:53:10.380Z,27.33
2023-04-18T05:53:40.394Z,27.36
2023-04-18T05:54:10.427Z,27.33
2023-04-18T05:54:40.461Z,27.34
2023-04-18T05:55:10.502Z,27.36
2023-04-18T05:55:40.530Z,27.36
2023-04-18T05:56:10.551Z,27.37
2023-04-18T05:56:40.600Z,27.34
2023-04-18T05:57:10.620Z,27.34
2023-04-18T05:57:40.659Z,27.34
2023-04-18T05:58:10.689Z,27.39
2023-04-18T05:58:40.732Z,27.36
2023-04-18T05:59:10.773Z,27.36
2023-04-18T05:59:40.783Z,27.36
2023-04-18T06:00:10.813Z,27.37
2023-04-18T06:00:40.928Z,27.37
2023-04-18T06:01:10.925Z,27.36
2023-04-18T06:01:40.980Z,27.36
2023-04-18T06:02:11.084Z,27.37
2023-04-18T06:02:41.438Z,27.40
2023-04-18T06:03:11.796Z,27.37
2023-04-18T06:03:41.353Z,27.39
2023-04-18T06:04:11.554Z,27.40
2023-04-18T06:04:41.392Z,27.39
2023-04-18T06:05:11.612Z,27.37
2023-04-18T06:05:41.409Z,27.39
2023-04-18T06:06:11.434Z,27.39
2023-04-18T06:06:41.488Z,27.37
2023-04-18T06:07:11.531Z,27.36
2023-04-18T06:07:41.560Z,27.33
2023-04-18T06:08:11.598Z,27.33
2023-04-18T06:08:41.624Z,27.34
2023-04-18T06:09:11.646Z,27.34
2023-04-18T06:09:41.680Z,27.34
2023-04-18T06:10:11.690Z,27.32
2023-04-18T06:10:41.805Z,27.33
2023-04-18T06:11:11.796Z,27.33
2023-04-18T06:11:41.917Z,27.33
2023-04-18T06:12:12.036Z,27.33
2023-04-18T06:12:42.227Z,27.36
2023-04-18T06:13:12.250Z,27.34
2023-04-18T06:13:42.371Z,27.33
2023-04-18T06:14:12.707Z,27.34
2023-04-18T06:14:42.582Z,27.33
2023-04-18T06:15:12.599Z,27.37
2023-04-18T06:15:42.713Z,27.34
2023-04-18T06:16:12.642Z,27.34
2023-04-18T06:16:42.708Z,27.37
2023-04-18T06:17:12.723Z,27.37
2023-04-18T06:17:42.761Z,27.37
2023-04-18T06:18:12.794Z,27.37
2023-04-18T06:18:42.913Z,27.39
2023-04-18T06:19:13.038Z,27.40
2023-04-18T06:19:43.151Z,27.39
2023-04-18T06:20:13.169Z,27.40
2023-04-18T06:20:43.197Z,27.40
2023-04-18T06:21:13.223Z,27.41
2023-04-18T06:21:43.263Z,27.41
2023-04-18T06:22:13.294Z,27.43
2023-04-18T06:22:43.330Z,27.41
2023-04-18T06:23:13.374Z,27.40
2023-04-18T06:23:43.392Z,27.41
2023-04-18T06:24:13.765Z,27.41
2023-04-18T06:24:43.512Z,27.41
2023-04-18T06:25:13.538Z,27.39
2023-04-18T06:25:43.596Z,27.39
2023-04-18T06:26:13.610Z,27.34
2023-04-18T06:26:43.653Z,27.34
2023-04-18T06:27:24.393Z,27.34
2023-04-18T06:27:43.727Z,27.33
2023-04-18T06:28:13.782Z,27.33
2023-04-18T06:28:43.806Z,27.30
2023-04-18T06:29:13.868Z,27.27
2023-04-18T06:29:43.891Z,27.32
2023-04-18T06:30:13.909Z,27.30
2023-04-18T06:30:44.201Z,27.32
2023-04-18T06:31:14.032Z,27.29
2023-04-18T06:31:44.065Z,27.27
2023-04-18T06:32:14.077Z,27.29
2023-04-18T06:32:44.188Z,27.27
2023-04-18T06:33:14.202Z,27.29
2023-04-18T06:33:44.241Z,27.24
2023-04-18T06:34:14.510Z,27.27